Barron, Wisconsin
Current Conditions -  °F | °C
As of 12:35 AM on Saturday 20 Dec 2014 (Local Time) from KRPD Reporting Station
Overcast Overcast  
Wind Chill: 20°   Ceiling: 1500
Heat Index: 27°   Visibility: 10mi
Dew Point: 23°   Wind: 6mph
Humidity: 84%   Direction: 130°SE
Pressure: 30.2"   Gusts: NA
Location:  45.4°N, 91.85°W
Report Text: KRPD 200635Z AUTO 13005KT 10SM OVC015 M03/M05 A3020 RMK AO2 T10281052
Loading
Personal Weather Stations






























Interactive Weather Map New forecast layout! Learn more

10-Day Weather Forecast

Advertisements
Track Severe Weather on mobile